Date,TemperatureHighF,TemperatureAvgF,TemperatureLowF,DewpointHighF,DewpointAvgF,DewpointLowF,HumidityHigh,HumidityAvg,HumidityLow,PressureMaxIn,PressureMinIn,WindSpeedMaxMPH,WindSpeedAvgMPH,GustSpeedMaxMPH,PrecipitationSumIn
2013-1-1,57.4,54.4,51.4,52.1,45.9,40.6,87,73,54,30.09,29.88,14,1,14,0.28
2013-1-2,55.8,49.7,43.0,52.3,45.0,34.2,92,84,71,30.12,29.83,11,0,11,0.31
2013-1-3,43.5,42.3,39.2,37.3,33.5,30.2,82,71,65,30.18,30.09,10,0,10,0.08
2013-1-4,49.8,42.3,35.6,30.4,27.0,22.9,76,56,36,30.24,30.12,12,0,12,0.28
2013-1-5,48.9,42.7,35.8,33.9,24.3,19.1,64,49,35,30.33,30.18,9,0,9,0.00
2013-1-6,49.6,47.4,44.2,43.3,37.5,31.3,82,68,54,30.21,30.00,7,0,7,0.00
2013-1-7,52.7,46.9,41.2,42.8,31.6,26.2,81,57,37,30.39,30.03,19,1,19,0.00
2013-1-8,58.8,50.5,43.0,46.7,39.8,27.4,83,67,52,30.39,30.27,14,1,14,0.00
2013-1-9,65.5,56.9,48.9,53.0,50.0,45.2,90,78,61,30.36,30.27,5,0,5,0.00
2013-1-10,59.7,58.6,50.0,52.2,49.8,31.6,76,73,48,30.39,30.33,9,0,9,0.00
2013-1-11,50.0,50.0,50.0,32.6,32.6,32.6,51,51,51,30.36,30.36,0,0,0,0.00
2013-1-12,50.0,50.0,50.0,32.6,32.6,32.6,51,51,51,30.36,30.36,0,0,0,0.00
2013-1-13,50.0,50.0,50.0,32.6,32.6,32.6,51,51,51,30.36,30.36,0,0,0,0.00
2013-1-14,60.6,51.9,50.0,58.0,37.5,32.6,93,59,51,30.36,30.09,7,0,7,0.00
2013-1-15,61.7,58.8,56.5,59.8,56.2,52.8,97,91,84,30.12,30.00,9,0,9,0.00
2013-1-16,70.3,61.2,56.8,58.2,20.2,0.0,97,34,93,30.00,29.91,16,1,16,0.00
2013-1-17,72.7,59.0,46.8,0.0,0.0,0.0,0,0,100,29.91,29.74,22,2,22,0.00
2013-1-18,88.3,46.9,37.8,0.0,0.0,0.0,0,0,100,30.36,29.85,12,1,12,0.00
2013-3-25,52.3,48.8,44.8,41.8,29.6,22.5,82,49,37,29.74,29.50,24,5,24,0.00
2013-3-26,50.7,45.3,38.7,27.5,22.3,19.5,49,40,30,30.00,29.74,16,2,16,0.00
2013-3-27,56.7,48.0,39.4,25.8,21.6,18.2,50,36,25,30.12,30.00,18,2,18,0.00
2013-3-28,57.9,48.3,38.8,25.8,20.2,17.1,44,33,24,30.18,30.06,16,1,16,0.00
2013-3-29,59.9,50.3,40.1,35.7,25.1,19.7,53,38,24,30.27,30.15,15,2,15,0.00
2013-3-30,61.0,54.8,48.7,44.0,38.2,33.6,67,54,37,30.18,30.06,15,1,15,0.00
2013-3-31,63.1,57.0,51.1,53.0,48.1,39.2,84,72,58,30.09,29.80,17,3,17,0.00
2013-4-1,62.6,58.4,56.3,59.8,54.8,52.8,91,88,81,29.83,29.77,9,0,9,0.00
2013-4-2,60.3,54.9,49.6,53.8,36.5,25.0,90,52,27,30.06,29.83,11,0,11,0.00
2013-4-3,54.9,51.4,49.1,44.5,33.4,24.5,76,52,32,30.24,30.03,14,1,14,0.00
2013-4-4,59.9,51.6,47.7,59.0,39.1,29.0,97,64,47,30.24,29.71,30,5,30,0.00
2013-4-5,60.1,52.6,46.9,59.2,46.5,41.0,98,81,59,29.94,29.68,13,1,13,0.00
2013-4-6,62.2,53.1,46.8,42.8,35.3,27.6,84,55,28,30.24,29.94,14,3,14,0.00
2013-4-7,64.8,56.1,46.4,52.2,45.3,35.5,83,68,46,30.24,30.09,15,1,15,0.00
2013-4-8,68.7,62.0,55.8,56.5,53.6,50.0,86,74,61,30.15,30.06,12,2,12,0.00
2013-4-9,69.4,63.6,59.0,58.5,56.6,54.2,89,78,64,30.18,30.06,14,2,14,0.24
2013-4-10,71.4,64.5,60.4,61.7,57.9,54.9,93,80,57,30.09,29.97,12,1,12,0.00
2013-4-11,71.8,65.1,59.9,63.6,59.7,57.0,93,83,67,29.97,29.83,13,2,13,0.00
2013-4-12,68.4,65.1,63.1,66.3,62.6,60.6,96,91,86,29.83,29.65,18,1,18,1.30
2013-4-13,66.7,61.7,56.7,61.1,50.1,41.5,94,67,48,29.97,29.68,16,1,16,0.00
2013-4-14,68.2,61.4,53.1,55.0,50.4,45.3,87,68,45,30.06,29.97,11,0,11,0.00
2013-4-15,67.8,64.5,60.4,62.2,57.5,53.7,89,78,64,30.15,29.91,22,1,22,0.67
2013-4-16,73.2,66.5,62.2,63.9,59.7,56.2,95,80,60,30.21,30.12,12,1,12,0.00
2013-4-17,72.0,66.0,59.7,61.9,57.6,54.9,91,75,61,30.18,30.09,11,0,11,0.00
2013-4-18,73.4,68.1,63.1,61.9,59.6,57.7,88,75,59,30.15,30.03,12,1,12,0.00
2013-4-19,73.4,69.3,66.7,67.7,64.7,61.6,93,85,75,30.03,29.83,12,0,12,0.08
2013-4-20,69.1,60.4,55.0,65.7,49.9,38.8,94,70,49,30.21,29.83,13,0,13,1.54
2013-4-21,62.8,56.5,50.9,45.3,37.0,29.5,74,50,32,30.39,30.18,22,1,22,0.00
2013-4-22,57.7,53.5,50.0,50.2,45.1,32.8,86,73,50,30.36,30.09,12,1,12,0.00
2013-4-23,65.8,58.6,53.2,51.7,48.2,43.3,90,71,45,30.12,30.03,7,0,7,0.00
2013-4-24,68.9,62.0,54.7,59.5,53.4,47.1,83,74,59,30.15,30.00,9,1,9,0.00
2013-4-25,68.9,63.5,56.7,62.5,54.0,42.4,90,72,54,30.21,30.00,18,1,18,0.04
2013-4-26,68.4,59.7,50.7,47.8,40.2,29.4,80,51,25,30.33,30.21,16,1,16,0.00
2013-4-27,69.3,62.4,56.3,49.5,43.9,34.6,74,52,34,30.33,30.24,14,0,14,0.00
2013-4-28,69.3,63.8,57.7,55.0,44.6,33.1,69,51,31,30.24,30.06,12,1,12,0.00
2013-4-29,65.7,64.6,63.1,62.7,59.0,53.5,92,83,66,30.06,29.91,11,0,11,0.83
2013-4-30,71.1,66.2,63.3,65.1,60.8,57.0,95,83,65,30.06,29.91,12,0,12,0.00
2013-5-1,71.6,65.5,62.1,63.3,58.0,54.7,86,77,56,30.18,30.03,13,0,13,0.04
2013-5-2,69.1,64.4,61.0,62.9,56.7,49.7,93,77,51,30.21,30.15,16,1,16,0.08
2013-5-3,68.5,62.2,58.3,57.0,48.3,38.8,86,62,40,30.15,30.06,21,1,21,0.00
2013-5-4,64.9,59.8,56.1,55.1,51.6,45.3,90,75,58,30.09,29.97,19,1,19,0.04
2013-5-5,70.3,63.5,57.6,61.5,56.5,51.3,90,78,61,29.97,29.91,19,1,19,0.00
2013-5-6,67.3,65.5,63.3,64.3,60.3,57.0,92,83,75,29.91,29.83,16,0,16,0.83
2013-5-7,66.7,63.2,59.5,60.8,55.6,49.7,92,77,56,29.91,29.80,11,0,11,0.00
2013-5-8,71.4,65.7,60.4,59.5,55.9,48.6,87,71,46,29.97,29.88,16,1,16,0.00
2013-5-9,72.7,68.1,63.1,61.8,59.4,56.9,82,74,61,30.03,29.91,12,1,12,0.00
2013-5-10,74.1,69.1,63.7,66.1,62.1,58.8,89,79,64,30.03,29.97,10,1,10,0.00
2013-5-11,75.6,71.0,68.7,66.2,64.4,60.4,89,80,69,29.97,29.80,14,0,14,0.00
2013-5-12,77.0,71.7,67.5,65.8,57.9,40.1,90,64,33,29.91,29.74,12,0,12,0.00
2013-5-13,70.3,64.6,58.3,42.7,34.9,26.9,49,34,23,30.06,29.91,12,1,12,0.00
2013-5-14,70.3,62.0,53.1,42.5,33.5,26.0,53,35,22,30.18,30.06,15,0,15,0.00
2013-5-15,74.8,69.3,64.9,60.1,55.4,43.1,73,62,45,30.09,29.91,15,1,15,0.00
2013-5-16,76.1,71.1,67.6,63.7,61.9,59.3,80,73,61,29.94,29.85,17,1,17,0.00
2013-5-17,78.6,72.7,69.1,64.6,62.6,58.8,80,71,51,30.06,29.91,12,0,12,0.00
2013-5-18,77.4,72.7,68.9,68.3,66.0,63.5,89,80,71,30.12,30.06,9,0,9,0.00
2013-5-19,78.3,73.3,70.0,68.4,66.2,64.4,89,79,66,30.12,30.06,12,1,12,0.00
2013-5-20,78.3,73.9,71.1,67.1,65.9,64.4,84,76,66,30.09,30.03,12,1,12,0.00
2013-5-21,78.6,74.3,72.3,69.1,67.3,65.1,87,79,66,30.03,29.94,12,0,12,0.00
2013-5-22,80.6,75.2,72.3,69.5,68.1,64.9,89,79,65,30.00,29.94,13,1,13,0.00
2013-5-23,76.6,73.6,72.0,71.3,69.3,68.1,91,86,78,29.94,29.80,11,0,11,0.63
2013-5-24,79.5,72.8,63.7,70.2,55.5,34.7,92,59,32,30.09,29.71,13,1,13,0.00
2013-5-25,72.0,63.4,54.5,46.1,34.5,29.9,53,35,22,30.21,30.06,13,0,13,0.00
2013-5-26,72.0,66.0,59.7,51.9,47.9,42.9,70,53,37,30.18,30.09,9,0,9,0.00
2013-5-27,74.8,67.5,58.5,60.2,51.0,41.8,86,58,32,30.24,30.15,9,0,9,0.00
2013-5-28,78.8,72.4,65.7,66.2,62.0,57.9,82,70,58,30.24,30.15,11,1,11,0.00
2013-5-29,80.6,75.0,70.0,67.7,65.0,62.1,86,72,54,30.24,30.15,9,1,9,0.00
2013-5-30,81.0,75.5,69.6,69.0,66.4,63.0,85,74,62,30.24,30.15,9,0,9,0.00
2013-5-31,81.0,76.6,72.1,69.9,68.6,66.8,87,77,65,30.21,30.09,12,1,12,0.00
2013-6-1,82.9,77.4,73.8,70.7,68.2,65.6,87,74,58,30.12,30.03,9,0,9,0.00
2013-6-2,82.9,77.5,74.5,70.2,68.4,66.7,81,74,59,30.06,29.91,11,1,11,0.00
2013-6-3,79.3,74.4,71.2,72.5,69.8,65.8,93,86,78,29.94,29.83,18,0,18,0.63
2013-6-4,78.4,74.1,70.0,71.5,67.6,59.3,94,81,60,30.03,29.85,16,0,16,0.00
2013-6-5,79.3,74.1,70.2,63.1,59.0,48.8,77,60,37,30.06,29.97,16,1,16,0.00
2013-6-6,78.8,75.2,73.2,72.0,68.0,61.6,91,79,67,30.00,29.83,16,0,16,0.08
2013-6-7,80.1,76.6,74.7,74.3,71.5,66.8,94,84,70,29.83,29.53,11,0,11,0.04
2013-6-8,82.0,77.2,75.4,74.4,72.9,71.5,93,87,73,30.06,29.83,14,0,14,0.00
2013-6-9,79.9,77.1,74.8,76.6,74.7,73.3,95,92,88,30.12,30.06,10,1,10,0.00
2013-6-10,78.8,78.8,78.8,75.3,75.3,75.3,89,89,89,30.06,30.06,0,0,0,0.00
2013-6-11,78.8,78.8,78.8,75.3,75.3,75.3,89,89,89,30.06,30.06,0,0,0,0.00
2013-6-12,78.8,78.8,78.8,75.3,75.3,75.3,89,89,89,30.06,30.06,0,0,0,0.00